sensor_id;sensor_type;location;lat;lon;timestamp;pressure;altitude;pressure_sealevel;temperature;humidity
76424;BME280;65257;52.104;4.268;2023-08-24T00:01:27;99027.25;;;18.02;100.00
76424;BME280;65257;52.104;4.268;2023-08-24T00:03:52;99046.25;;;18.01;100.00
76424;BME280;65257;52.104;4.268;2023-08-24T00:06:18;99035.88;;;18.01;100.00
76424;BME280;65257;52.104;4.268;2023-08-24T00:08:43;99053.94;;;18.04;100.00
76424;BME280;65257;52.104;4.268;2023-08-24T00:11:13;99056.47;;;18.06;100.00
76424;BME280;65257;52.104;4.268;2023-08-24T00:13:43;99075.59;;;18.00;100.00
76424;BME280;65257;52.104;4.268;2023-08-24T00:16:19;99071.31;;;17.99;100.00
76424;BME280;65257;52.104;4.268;2023-08-24T00:18:45;99063.38;;;18.07;100.00
76424;BME280;65257;52.104;4.268;2023-08-24T00:21:12;99055.50;;;18.11;100.00
76424;BME280;65257;52.104;4.268;2023-08-24T00:23:38;99059.97;;;18.05;100.00
76424;BME280;65257;52.104;4.268;2023-08-24T00:26:04;99021.41;;;17.94;100.00
76424;BME280;65257;52.104;4.268;2023-08-24T00:28:32;99019.75;;;17.90;100.00
76424;BME280;65257;52.104;4.268;2023-08-24T00:30:57;99008.09;;;18.08;100.00
76424;BME280;65257;52.104;4.268;2023-08-24T00:33:29;99007.19;;;18.10;100.00
76424;BME280;65257;52.104;4.268;2023-08-24T00:35:59;99008.97;;;18.08;100.00
76424;BME280;65257;52.104;4.268;2023-08-24T00:38:28;98936.19;;;18.21;100.00
76424;BME280;65257;52.104;4.268;2023-08-24T00:40:54;98952.81;;;18.10;100.00
76424;BME280;65257;52.104;4.268;2023-08-24T00:43:23;98962.38;;;18.08;100.00
76424;BME280;65257;52.104;4.268;2023-08-24T00:45:53;98974.97;;;18.22;100.00
76424;BME280;65257;52.104;4.268;2023-08-24T00:48:26;98998.84;;;18.33;100.00
76424;BME280;65257;52.104;4.268;2023-08-24T00:50:56;99013.19;;;18.45;100.00
76424;BME280;65257;52.104;4.268;2023-08-24T00:53:28;99011.59;;;18.41;100.00
76424;BME280;65257;52.104;4.268;2023-08-24T00:55:54;98991.09;;;18.32;100.00
76424;BME280;65257;52.104;4.268;2023-08-24T00:58:23;98934.63;;;18.13;100.00
76424;BME280;65257;52.104;4.268;2023-08-24T01:00:51;98867.50;;;18.07;100.00
76424;BME280;65257;52.104;4.268;2023-08-24T01:03:25;98811.59;;;18.00;100.00
76424;BME280;65257;52.104;4.268;2023-08-24T01:05:51;98736.81;;;17.91;100.00
76424;BME280;65257;52.104;4.268;2023-08-24T01:08:16;98661.72;;;17.93;100.00
76424;BME280;65257;52.104;4.268;2023-08-24T01:13:46;98614.41;;;17.89;100.00
76424;BME280;65257;52.104;4.268;2023-08-24T01:16:38;98593.41;;;17.98;100.00
76424;BME280;65257;52.104;4.268;2023-08-24T01:19:37;98565.94;;;17.94;100.00
76424;BME280;65257;52.104;4.268;2023-08-24T01:22:32;98510.78;;;17.92;100.00
76424;BME280;65257;52.104;4.268;2023-08-24T01:27:43;98110.75;;;17.88;100.00
76424;BME280;65257;52.104;4.268;2023-08-24T01:30:12;98081.41;;;17.89;100.00
76424;BME280;65257;52.104;4.268;2023-08-24T01:32:37;98062.50;;;17.87;100.00
76424;BME280;65257;52.104;4.268;2023-08-24T01:35:06;98069.72;;;17.79;100.00
76424;BME280;65257;52.104;4.268;2023-08-24T01:37:38;98049.44;;;17.90;100.00
76424;BME280;65257;52.104;4.268;2023-08-24T01:45:10;98079.72;;;17.88;100.00
76424;BME280;65257;52.104;4.268;2023-08-24T01:47:38;98093.31;;;17.93;100.00
76424;BME280;65257;52.104;4.268;2023-08-24T01:50:09;98100.19;;;17.94;100.00
76424;BME280;65257;52.104;4.268;2023-08-24T01:52:40;98124.25;;;17.96;100.00
76424;BME280;65257;52.104;4.268;2023-08-24T01:55:17;98086.22;;;17.98;100.00
76424;BME280;65257;52.104;4.268;2023-08-24T01:57:43;98093.31;;;17.93;100.00
76424;BME280;65257;52.104;4.268;2023-08-24T02:00:09;98106.03;;;17.99;100.00
76424;BME280;65257;52.104;4.268;2023-08-24T02:02:44;98091.59;;;17.92;100.00
76424;BME280;65257;52.104;4.268;2023-08-24T02:05:15;98089.16;;;17.89;100.00
76424;BME280;65257;52.104;4.268;2023-08-24T02:07:42;98079.47;;;17.94;100.00
76424;BME280;65257;52.104;4.268;2023-08-24T02:10:07;98093.31;;;17.93;100.00
76424;BME280;65257;52.104;4.268;2023-08-24T02:12:34;98086.59;;;17.89;100.00
76424;BME280;65257;52.104;4.268;2023-08-24T02:14:59;98069.34;;;17.88;100.00
76424;BME280;65257;52.104;4.268;2023-08-24T02:17:30;98059.25;;;17.82;100.00
76424;BME280;65257;52.104;4.268;2023-08-24T02:19:56;98047.56;;;17.72;100.00
76424;BME280;65257;52.104;4.268;2023-08-24T02:22:30;98056.94;;;17.75;100.00
76424;BME280;65257;52.104;4.268;2023-08-24T02:24:56;98072.66;;;17.70;100.00
76424;BME280;65257;52.104;4.268;2023-08-24T02:27:21;98081.25;;;17.71;100.00
76424;BME280;65257;52.104;4.268;2023-08-24T02:29:47;98086.53;;;17.68;100.00
76424;BME280;65257;52.104;4.268;2023-08-24T02:32:12;98075.25;;;17.70;100.00
76424;BME280;65257;52.104;4.268;2023-08-24T02:34:43;98068.41;;;17.69;100.00
76424;BME280;65257;52.104;4.268;2023-08-24T02:37:09;98058.88;;;17.70;100.00
76424;BME280;65257;52.104;4.268;2023-08-24T02:39:38;98054.31;;;17.76;100.00
76424;BME280;65257;52.104;4.268;2023-08-24T02:42:12;98061.16;;;17.77;100.00
76424;BME280;65257;52.104;4.268;2023-08-24T02:44:43;98070.53;;;17.80;100.00
76424;BME280;65257;52.104;4.268;2023-08-24T02:47:14;98076.56;;;17.80;100.00
76424;BME280;65257;52.104;4.268;2023-08-24T02:49:40;98071.88;;;17.68;100.00
76424;BME280;65257;52.104;4.268;2023-08-24T02:52:05;98062.19;;;17.50;100.00
76424;BME280;65257;52.104;4.268;2023-08-24T02:54:30;98040.34;;;17.59;100.00
76424;BME280;65257;52.104;4.268;2023-08-24T02:56:56;98006.19;;;17.49;100.00
76424;BME280;65257;52.104;4.268;2023-08-24T02:59:27;97829.63;;;17.47;100.00
76424;BME280;65257;52.104;4.268;2023-08-24T03:01:52;97823.97;;;17.59;100.00
76424;BME280;65257;52.104;4.268;2023-08-24T03:04:19;97833.50;;;17.59;100.00
76424;BME280;65257;52.104;4.268;2023-08-24T03:06:44;97825.91;;;17.54;100.00
76424;BME280;65257;52.104;4.268;2023-08-24T03:09:10;97823.31;;;17.54;100.00
76424;BME280;65257;52.104;4.268;2023-08-24T03:11:36;97813.91;;;17.53;100.00
76424;BME280;65257;52.104;4.268;2023-08-24T03:14:02;97811.13;;;17.58;100.00
76424;BME280;65257;52.104;4.268;2023-08-24T03:16:31;97823.97;;;17.59;100.00
76424;BME280;65257;52.104;4.268;2023-08-24T03:18:56;97816.50;;;17.53;100.00
76424;BME280;65257;52.104;4.268;2023-08-24T03:21:21;97822.63;;;17.49;100.00
76424;BME280;65257;52.104;4.268;2023-08-24T03:23:47;97826.06;;;17.49;100.00
76424;BME280;65257;52.104;4.268;2023-08-24T03:26:15;97834.19;;;17.62;100.00
76424;BME280;65257;52.104;4.268;2023-08-24T03:28:42;97847.25;;;17.59;100.00
76424;BME280;65257;52.104;4.268;2023-08-24T03:31:08;97853.91;;;17.65;100.00
76424;BME280;65257;52.104;4.268;2023-08-24T03:33:42;97848.03;;;17.61;100.00
76424;BME280;65257;52.104;4.268;2023-08-24T03:36:07;97846.94;;;17.67;100.00
76424;BME280;65257;52.104;4.268;2023-08-24T03:38:34;97865.88;;;17.67;100.00
76424;BME280;65257;52.104;4.268;2023-08-24T03:41:01;97866.66;;;17.69;100.00
76424;BME280;65257;52.104;4.268;2023-08-24T03:43:34;97858.06;;;17.69;100.00
76424;BME280;65257;52.104;4.268;2023-08-24T03:46:04;97884.09;;;17.64;100.00
76424;BME280;65257;52.104;4.268;2023-08-24T03:48:32;97887.47;;;17.66;100.00
76424;BME280;65257;52.104;4.268;2023-08-24T03:50:57;97890.78;;;17.48;100.00
76424;BME280;65257;52.104;4.268;2023-08-24T03:53:24;97874.50;;;17.46;100.00
76424;BME280;65257;52.104;4.268;2023-08-24T03:55:51;97884.38;;;17.58;100.00
76424;BME280;65257;52.104;4.268;2023-08-24T03:58:17;97890.22;;;17.62;100.00
76424;BME280;65257;52.104;4.268;2023-08-24T04:00:45;97901.50;;;17.61;100.00
76424;BME280;65257;52.104;4.268;2023-08-24T04:03:12;97931.22;;;17.49;100.00
76424;BME280;65257;52.104;4.268;2023-08-24T04:05:37;97938.84;;;17.54;100.00
76424;BME280;65257;52.104;4.268;2023-08-24T04:08:03;97964.63;;;17.55;100.00
76424;BME280;65257;52.104;4.268;2023-08-24T04:10:33;97975.06;;;17.54;100.00
76424;BME280;65257;52.104;4.268;2023-08-24T04:12:59;97991.28;;;17.57;100.00
76424;BME280;65257;52.104;4.268;2023-08-24T04:15:24;98010.28;;;17.56;100.00
76424;BME280;65257;52.104;4.268;2023-08-24T04:17:53;98005.03;;;17.58;100.00
76424;BME280;65257;52.104;4.268;2023-08-24T04:20:18;98029.16;;;17.58;100.00
76424;BME280;65257;52.104;4.268;2023-08-24T04:22:44;98260.00;;;17.63;100.00
76424;BME280;65257;52.104;4.268;2023-08-24T04:25:15;98610.31;;;17.53;100.00
76424;BME280;65257;52.104;4.268;2023-08-24T04:27:41;98645.72;;;17.49;100.00
76424;BME280;65257;52.104;4.268;2023-08-24T04:30:08;98626.53;;;17.58;100.00
76424;BME280;65257;52.104;4.268;2023-08-24T04:32:37;98648.03;;;17.60;100.00
76424;BME280;65257;52.104;4.268;2023-08-24T04:35:03;98689.34;;;17.62;100.00
76424;BME280;65257;52.104;4.268;2023-08-24T04:37:28;98718.94;;;17.53;100.00
76424;BME280;65257;52.104;4.268;2023-08-24T04:40:19;98720.53;;;17.57;100.00
76424;BME280;65257;52.104;4.268;2023-08-24T04:42:44;98752.47;;;17.56;100.00
76424;BME280;65257;52.104;4.268;2023-08-24T04:45:10;98886.19;;;17.51;100.00
76424;BME280;65257;52.104;4.268;2023-08-24T04:47:35;99164.59;;;17.52;100.00
76424;BME280;65257;52.104;4.268;2023-08-24T04:50:00;99222.34;;;17.54;100.00
76424;BME280;65257;52.104;4.268;2023-08-24T04:52:26;99242.22;;;17.54;100.00
76424;BME280;65257;52.104;4.268;2023-08-24T04:54:51;99251.50;;;17.62;100.00
76424;BME280;65257;52.104;4.268;2023-08-24T04:57:16;99241.16;;;17.62;100.00
76424;BME280;65257;52.104;4.268;2023-08-24T04:59:42;99230.59;;;17.74;100.00
76424;BME280;65257;52.104;4.268;2023-08-24T05:02:11;99231.66;;;17.63;100.00
76424;BME280;65257;52.104;4.268;2023-08-24T05:04:37;99215.34;;;17.59;100.00
76424;BME280;65257;52.104;4.268;2023-08-24T05:07:05;99232.75;;;17.51;100.00
76424;BME280;65257;52.104;4.268;2023-08-24T05:09:31;99237.91;;;17.51;100.00
76424;BME280;65257;52.104;4.268;2023-08-24T05:11:57;99254.34;;;17.48;100.00
76424;BME280;65257;52.104;4.268;2023-08-24T05:14:23;99249.31;;;17.39;100.00
76424;BME280;65257;52.104;4.268;2023-08-24T05:16:48;99264.09;;;17.33;100.00
76424;BME280;65257;52.104;4.268;2023-08-24T05:19:17;99274.28;;;17.42;100.00
76424;BME280;65257;52.104;4.268;2023-08-24T05:21:42;99394.91;;;17.46;100.00
76424;BME280;65257;52.104;4.268;2023-08-24T05:24:07;99462.94;;;17.49;100.00
76424;BME280;65257;52.104;4.268;2023-08-24T05:26:33;99463.84;;;17.47;100.00
76424;BME280;65257;52.104;4.268;2023-08-24T05:28:58;99457.84;;;17.45;100.00
76424;BME280;65257;52.104;4.268;2023-08-24T05:31:24;99455.28;;;17.42;100.00
76424;BME280;65257;52.104;4.268;2023-08-24T05:33:49;99445.75;;;17.45;100.00
76424;BME280;65257;52.104;4.268;2023-08-24T05:36:14;99445.81;;;17.42;100.00
76424;BME280;65257;52.104;4.268;2023-08-24T05:38:40;99445.56;;;17.59;100.00
76424;BME280;65257;52.104;4.268;2023-08-24T05:41:11;99449.81;;;17.63;100.00
76424;BME280;65257;52.104;4.268;2023-08-24T05:43:36;99463.47;;;17.74;100.00
76424;BME280;65257;52.104;4.268;2023-08-24T05:46:05;99467.56;;;17.86;100.00
76424;BME280;65257;52.104;4.268;2023-08-24T05:48:30;99467.59;;;17.84;100.00
76424;BME280;65257;52.104;4.268;2023-08-24T05:50:58;99462.38;;;17.86;100.00
76424;BME280;65257;52.104;4.268;2023-08-24T05:53:27;99443.09;;;18.05;100.00
76424;BME280;65257;52.104;4.268;2023-08-24T05:55:57;99431.69;;;18.13;100.00
76424;BME280;65257;52.104;4.268;2023-08-24T05:58:22;99447.06;;;18.23;100.00
76424;BME280;65257;52.104;4.268;2023-08-24T06:00:48;99448.41;;;18.42;100.00
76424;BME280;65257;52.104;4.268;2023-08-24T06:03:13;99450.19;;;18.40;100.00
76424;BME280;65257;52.104;4.268;2023-08-24T06:05:38;99438.78;;;18.51;100.00
76424;BME280;65257;52.104;4.268;2023-08-24T06:08:07;99408.16;;;18.70;100.00
76424;BME280;65257;52.104;4.268;2023-08-24T06:10:35;99387.47;;;18.67;100.00
76424;BME280;65257;52.104;4.268;2023-08-24T06:13:00;99373.59;;;18.71;100.00
76424;BME280;65257;52.104;4.268;2023-08-24T06:15:29;99355.00;;;18.91;100.00
76424;BME280;65257;52.104;4.268;2023-08-24T06:17:55;99367.84;;;18.95;100.00
76424;BME280;65257;52.104;4.268;2023-08-24T06:20:26;99373.78;;;19.02;100.00
76424;BME280;65257;52.104;4.268;2023-08-24T06:22:52;99365.94;;;19.03;100.00
76424;BME280;65257;52.104;4.268;2023-08-24T06:25:17;99362.13;;;19.19;100.00
76424;BME280;65257;52.104;4.268;2023-08-24T06:27:43;99356.84;;;19.22;100.00
76424;BME280;65257;52.104;4.268;2023-08-24T06:30:08;99357.19;;;19.44;100.00
76424;BME280;65257;52.104;4.268;2023-08-24T06:32:34;99356.06;;;19.88;100.00
76424;BME280;65257;52.104;4.268;2023-08-24T06:35:03;99361.63;;;20.39;100.00
76424;BME280;65257;52.104;4.268;2023-08-24T06:37:28;99382.72;;;20.57;100.00
76424;BME280;65257;52.104;4.268;2023-08-24T06:39:54;99367.03;;;20.60;100.00
76424;BME280;65257;52.104;4.268;2023-08-24T06:42:21;99353.72;;;20.99;100.00
76424;BME280;65257;52.104;4.268;2023-08-24T06:44:49;99365.84;;;21.00;100.00
76424;BME280;65257;52.104;4.268;2023-08-24T06:47:15;99378.50;;;20.83;100.00
76424;BME280;65257;52.104;4.268;2023-08-24T06:49:40;99388.00;;;20.54;100.00
76424;BME280;65257;52.104;4.268;2023-08-24T06:52:06;99375.75;;;20.29;100.00
76424;BME280;65257;52.104;4.268;2023-08-24T06:54:31;99352.31;;;19.98;100.00
76424;BME280;65257;52.104;4.268;2023-08-24T06:56:57;99351.72;;;19.90;100.00
76424;BME280;65257;52.104;4.268;2023-08-24T06:59:26;99333.84;;;20.10;100.00
76424;BME280;65257;52.104;4.268;2023-08-24T07:01:52;99336.03;;;19.93;100.00
76424;BME280;65257;52.104;4.268;2023-08-24T07:04:17;99359.81;;;20.10;100.00
76424;BME280;65257;52.104;4.268;2023-08-24T07:06:42;99344.72;;;20.24;100.00
76424;BME280;65257;52.104;4.268;2023-08-24T07:09:09;99360.94;;;20.32;100.00
76424;BME280;65257;52.104;4.268;2023-08-24T07:11:34;99368.69;;;20.34;100.00
76424;BME280;65257;52.104;4.268;2023-08-24T07:14:02;99349.31;;;20.75;100.00
76424;BME280;65257;52.104;4.268;2023-08-24T07:16:31;99391.88;;;21.00;100.00
76424;BME280;65257;52.104;4.268;2023-08-24T07:18:57;99404.06;;;20.98;100.00
76424;BME280;65257;52.104;4.268;2023-08-24T07:21:22;99403.00;;;20.76;100.00
76424;BME280;65257;52.104;4.268;2023-08-24T07:23:48;99407.69;;;20.63;100.00
76424;BME280;65257;52.104;4.268;2023-08-24T07:26:13;99423.03;;;21.01;100.00
76424;BME280;65257;52.104;4.268;2023-08-24T07:28:39;99428.59;;;21.18;100.00
76424;BME280;65257;52.104;4.268;2023-08-24T07:31:09;99370.31;;;21.24;100.00
76424;BME280;65257;52.104;4.268;2023-08-24T07:33:38;99331.28;;;21.50;100.00
76424;BME280;65257;52.104;4.268;2023-08-24T07:36:05;99293.16;;;21.49;100.00
76424;BME280;65257;52.104;4.268;2023-08-24T07:38:31;99175.28;;;21.44;100.00
76424;BME280;65257;52.104;4.268;2023-08-24T07:40:57;99021.94;;;21.61;100.00
76424;BME280;65257;52.104;4.268;2023-08-24T07:43:23;99003.72;;;21.83;100.00
76424;BME280;65257;52.104;4.268;2023-08-24T07:45:49;98882.63;;;21.93;100.00
76424;BME280;65257;52.104;4.268;2023-08-24T07:48:14;98869.94;;;21.86;100.00
76424;BME280;65257;52.104;4.268;2023-08-24T07:50:49;98869.63;;;21.93;100.00
76424;BME280;65257;52.104;4.268;2023-08-24T07:53:14;98916.34;;;21.98;100.00
76424;BME280;65257;52.104;4.268;2023-08-24T07:55:40;99028.69;;;21.89;100.00
76424;BME280;65257;52.104;4.268;2023-08-24T07:58:09;99028.25;;;21.99;100.00
76424;BME280;65257;52.104;4.268;2023-08-24T08:00:38;99050.94;;;21.97;100.00
76424;BME280;65257;52.104;4.268;2023-08-24T08:03:04;98973.84;;;22.13;100.00
76424;BME280;65257;52.104;4.268;2023-08-24T08:05:30;99129.06;;;22.19;100.00
76424;BME280;65257;52.104;4.268;2023-08-24T08:07:55;99297.34;;;22.26;100.00
76424;BME280;65257;52.104;4.268;2023-08-24T08:10:21;99274.56;;;22.31;100.00
76424;BME280;65257;52.104;4.268;2023-08-24T08:12:46;99710.94;;;22.24;100.00
76424;BME280;65257;52.104;4.268;2023-08-24T08:15:15;99736.50;;;22.40;100.00
76424;BME280;65257;52.104;4.268;2023-08-24T08:17:40;99725.50;;;22.59;100.00
76424;BME280;65257;52.104;4.268;2023-08-24T08:20:21;99763.22;;;22.76;100.00
76424;BME280;65257;52.104;4.268;2023-08-24T08:22:47;99749.91;;;22.85;100.00
76424;BME280;65257;52.104;4.268;2023-08-24T08:25:23;99798.69;;;22.54;100.00
76424;BME280;65257;52.104;4.268;2023-08-24T08:27:49;99707.91;;;22.37;100.00
76424;BME280;65257;52.104;4.268;2023-08-24T08:30:18;99662.91;;;22.32;100.00
76424;BME280;65257;52.104;4.268;2023-08-24T08:32:45;99597.56;;;22.37;100.00
76424;BME280;65257;52.104;4.268;2023-08-24T08:35:11;99600.06;;;22.14;100.00
76424;BME280;65257;52.104;4.268;2023-08-24T08:37:36;99595.31;;;22.26;100.00
76424;BME280;65257;52.104;4.268;2023-08-24T08:40:03;99624.56;;;22.36;100.00
76424;BME280;65257;52.104;4.268;2023-08-24T08:42:33;99661.44;;;22.50;100.00
76424;BME280;65257;52.104;4.268;2023-08-24T08:45:09;99708.88;;;22.63;100.00
76424;BME280;65257;52.104;4.268;2023-08-24T08:47:39;99734.13;;;22.62;100.00
76424;BME280;65257;52.104;4.268;2023-08-24T08:50:06;99731.69;;;22.55;100.00
76424;BME280;65257;52.104;4.268;2023-08-24T08:52:40;99737.31;;;22.70;100.00
76424;BME280;65257;52.104;4.268;2023-08-24T08:55:06;99770.25;;;22.74;100.00
76424;BME280;65257;52.104;4.268;2023-08-24T08:57:34;99751.47;;;22.63;100.00
76424;BME280;65257;52.104;4.268;2023-08-24T09:00:01;99734.38;;;22.53;100.00
76424;BME280;65257;52.104;4.268;2023-08-24T09:02:28;99711.59;;;22.58;100.00
76424;BME280;65257;52.104;4.268;2023-08-24T09:04:56;99740.09;;;22.66;100.00
76424;BME280;65257;52.104;4.268;2023-08-24T09:07:22;99756.59;;;22.66;100.00
76424;BME280;65257;52.104;4.268;2023-08-24T09:09:49;99736.94;;;22.82;100.00
76424;BME280;65257;52.104;4.268;2023-08-24T09:12:15;99748.19;;;22.84;100.00
76424;BME280;65257;52.104;4.268;2023-08-24T09:14:41;99771.75;;;22.81;100.00
76424;BME280;65257;52.104;4.268;2023-08-24T09:17:06;99788.91;;;22.88;100.00
76424;BME280;65257;52.104;4.268;2023-08-24T09:19:33;99780.00;;;22.95;100.00
76424;BME280;65257;52.104;4.268;2023-08-24T09:22:05;99775.53;;;22.99;100.00
76424;BME280;65257;52.104;4.268;2023-08-24T09:24:34;99757.41;;;22.94;100.00
76424;BME280;65257;52.104;4.268;2023-08-24T09:27:29;99722.63;;;22.94;100.00
76424;BME280;65257;52.104;4.268;2023-08-24T09:29:54;99685.50;;;22.86;100.00
76424;BME280;65257;52.104;4.268;2023-08-24T09:32:32;99665.81;;;22.77;100.00
76424;BME280;65257;52.104;4.268;2023-08-24T09:35:08;99615.75;;;22.66;100.00
76424;BME280;65257;52.104;4.268;2023-08-24T09:37:35;99577.50;;;22.65;100.00
76424;BME280;65257;52.104;4.268;2023-08-24T09:40:05;99577.41;;;22.68;100.00
76424;BME280;65257;52.104;4.268;2023-08-24T09:42:43;99560.88;;;22.69;100.00
76424;BME280;65257;52.104;4.268;2023-08-24T09:45:18;99563.75;;;22.60;100.00
76424;BME280;65257;52.104;4.268;2023-08-24T09:47:51;99494.25;;;22.59;100.00
76424;BME280;65257;52.104;4.268;2023-08-24T09:50:22;99461.25;;;22.58;100.00
76424;BME280;65257;52.104;4.268;2023-08-24T09:52:53;99440.59;;;22.52;100.00
76424;BME280;65257;52.104;4.268;2023-08-24T09:55:20;99404.66;;;22.60;100.00
76424;BME280;65257;52.104;4.268;2023-08-24T09:57:52;99420.19;;;22.65;100.00
76424;BME280;65257;52.104;4.268;2023-08-24T10:00:19;99437.69;;;22.61;100.00
76424;BME280;65257;52.104;4.268;2023-08-24T10:02:52;99419.53;;;22.58;100.00
76424;BME280;65257;52.104;4.268;2023-08-24T10:05:24;99400.03;;;22.70;100.00
76424;BME280;65257;52.104;4.268;2023-08-24T10:07:55;99438.72;;;22.80;100.00
76424;BME280;65257;52.104;4.268;2023-08-24T10:10:21;99487.19;;;22.87;100.00
76424;BME280;65257;52.104;4.268;2023-08-24T10:13:11;99543.78;;;22.85;100.00
76424;BME280;65257;52.104;4.268;2023-08-24T10:15:43;99601.47;;;22.76;100.00
76424;BME280;65257;52.104;4.268;2023-08-24T10:18:13;99503.72;;;22.37;100.00
76424;BME280;65257;52.104;4.268;2023-08-24T10:20:39;99063.03;;;21.98;100.00
76424;BME280;65257;52.104;4.268;2023-08-24T10:23:06;98667.94;;;21.80;100.00
76424;BME280;65257;52.104;4.268;2023-08-24T10:25:32;98632.34;;;21.60;100.00
76424;BME280;65257;52.104;4.268;2023-08-24T10:28:02;98700.94;;;21.79;100.00
76424;BME280;65257;52.104;4.268;2023-08-24T10:30:28;98783.84;;;22.09;100.00
76424;BME280;65257;52.104;4.268;2023-08-24T10:32:56;98875.16;;;22.26;100.00
76424;BME280;65257;52.104;4.268;2023-08-24T10:35:32;98837.34;;;22.36;100.00
76424;BME280;65257;52.104;4.268;2023-08-24T10:37:58;98800.06;;;22.15;100.00
76424;BME280;65257;52.104;4.268;2023-08-24T10:40:36;98752.34;;;21.95;100.00
76424;BME280;65257;52.104;4.268;2023-08-24T10:43:05;98681.25;;;21.72;100.00
76424;BME280;65257;52.104;4.268;2023-08-24T10:46:00;98617.41;;;22.03;100.00
76424;BME280;65257;52.104;4.268;2023-08-24T10:51:17;98720.75;;;22.02;100.00
76424;BME280;65257;52.104;4.268;2023-08-24T10:53:52;98690.34;;;22.03;100.00
76424;BME280;65257;52.104;4.268;2023-08-24T10:56:19;98651.81;;;21.91;100.00
76424;BME280;65257;52.104;4.268;2023-08-24T10:59:14;98669.66;;;22.00;100.00
76424;BME280;65257;52.104;4.268;2023-08-24T11:01:54;98723.22;;;22.05;100.00
76424;BME280;65257;52.104;4.268;2023-08-24T11:04:23;98794.00;;;22.15;100.00
76424;BME280;65257;52.104;4.268;2023-08-24T11:06:59;98806.41;;;22.28;100.00
76424;BME280;65257;52.104;4.268;2023-08-24T11:09:45;98815.41;;;22.40;100.00
76424;BME280;65257;52.104;4.268;2023-08-24T11:12:17;98826.00;;;22.56;100.00
76424;BME280;65257;52.104;4.268;2023-08-24T11:14:50;98835.47;;;22.95;100.00
76424;BME280;65257;52.104;4.268;2023-08-24T11:17:20;98892.53;;;23.20;100.00
76424;BME280;65257;52.104;4.268;2023-08-24T11:19:52;99096.19;;;23.39;100.00
76424;BME280;65257;52.104;4.268;2023-08-24T11:22:25;99302.59;;;23.56;100.00
76424;BME280;65257;52.104;4.268;2023-08-24T11:24:50;99478.47;;;23.55;100.00
76424;BME280;65257;52.104;4.268;2023-08-24T11:27:16;99578.63;;;23.31;100.00
76424;BME280;65257;52.104;4.268;2023-08-24T11:29:42;99601.16;;;23.10;100.00
76424;BME280;65257;52.104;4.268;2023-08-24T11:32:10;99549.56;;;23.17;100.00
76424;BME280;65257;52.104;4.268;2023-08-24T11:34:36;99542.78;;;23.13;100.00
76424;BME280;65257;52.104;4.268;2023-08-24T11:37:02;99528.56;;;23.20;100.00
76424;BME280;65257;52.104;4.268;2023-08-24T11:39:27;99484.38;;;23.15;100.00
76424;BME280;65257;52.104;4.268;2023-08-24T11:42:01;99519.47;;;23.30;100.00
76424;BME280;65257;52.104;4.268;2023-08-24T11:44:47;99547.63;;;23.46;100.00
76424;BME280;65257;52.104;4.268;2023-08-24T11:47:13;99565.03;;;23.46;100.00
76424;BME280;65257;52.104;4.268;2023-08-24T11:49:40;99570.94;;;23.51;100.00
76424;BME280;65257;52.104;4.268;2023-08-24T11:52:11;99548.19;;;23.54;100.00
76424;BME280;65257;52.104;4.268;2023-08-24T11:54:40;99537.66;;;23.56;100.00
76424;BME280;65257;52.104;4.268;2023-08-24T11:57:07;99531.66;;;23.54;100.00
76424;BME280;65257;52.104;4.268;2023-08-24T11:59:40;99520.16;;;23.58;100.00
76424;BME280;65257;52.104;4.268;2023-08-24T12:02:08;99519.19;;;23.82;100.00
76424;BME280;65257;52.104;4.268;2023-08-24T12:04:48;99522.38;;;23.90;100.00
76424;BME280;65257;52.104;4.268;2023-08-24T12:07:14;99515.38;;;24.12;100.00
76424;BME280;65257;52.104;4.268;2023-08-24T12:09:50;99520.47;;;24.15;100.00
76424;BME280;65257;52.104;4.268;2023-08-24T12:12:19;99493.41;;;24.57;100.00
76424;BME280;65257;52.104;4.268;2023-08-24T12:14:51;99586.06;;;24.93;100.00
76424;BME280;65257;52.104;4.268;2023-08-24T12:17:16;99557.63;;;24.64;100.00
76424;BME280;65257;52.104;4.268;2023-08-24T12:19:44;99547.69;;;24.92;100.00
76424;BME280;65257;52.104;4.268;2023-08-24T12:22:17;99551.03;;;25.14;100.00
76424;BME280;65257;52.104;4.268;2023-08-24T12:24:47;99526.88;;;24.89;100.00
76424;BME280;65257;52.104;4.268;2023-08-24T12:27:27;99478.09;;;24.48;100.00
76424;BME280;65257;52.104;4.268;2023-08-24T12:29:53;99485.97;;;24.27;100.00
76424;BME280;65257;52.104;4.268;2023-08-24T12:32:21;99485.97;;;24.27;100.00
76424;BME280;65257;52.104;4.268;2023-08-24T12:34:53;99465.41;;;23.98;100.00
76424;BME280;65257;52.104;4.268;2023-08-24T12:37:20;99444.91;;;24.09;100.00
76424;BME280;65257;52.104;4.268;2023-08-24T12:39:45;99444.41;;;24.21;100.00
76424;BME280;65257;52.104;4.268;2023-08-24T12:42:14;99451.19;;;24.25;100.00
76424;BME280;65257;52.104;4.268;2023-08-24T12:44:39;99458.44;;;24.39;100.00
76424;BME280;65257;52.104;4.268;2023-08-24T12:47:07;99467.06;;;24.21;100.00
76424;BME280;65257;52.104;4.268;2023-08-24T12:49:36;99452.63;;;24.33;100.00
76424;BME280;65257;52.104;4.268;2023-08-24T12:52:01;99466.97;;;24.63;100.00
76424;BME280;65257;52.104;4.268;2023-08-24T12:54:27;99528.31;;;24.96;100.00
76424;BME280;65257;52.104;4.268;2023-08-24T12:56:52;99553.63;;;25.72;100.00
76424;BME280;65257;52.104;4.268;2023-08-24T12:59:17;99532.63;;;25.55;100.00
76424;BME280;65257;52.104;4.268;2023-08-24T13:01:43;99527.16;;;25.78;100.00
76424;BME280;65257;52.104;4.268;2023-08-24T13:04:09;99519.00;;;26.01;100.00
76424;BME280;65257;52.104;4.268;2023-08-24T13:06:34;99502.25;;;25.86;100.00
76424;BME280;65257;52.104;4.268;2023-08-24T13:09:00;99472.88;;;25.80;100.00
76424;BME280;65257;52.104;4.268;2023-08-24T13:11:26;99519.38;;;25.93;100.00